Norfolk Ns (Chambers Fld) Airport
KNGU : rendu visible

Aérodrome :











RETROUVEZ-NOUS SUR...

 
LOGIN :

S'inscrire | Disclaimer

   EN    FR    IT 

 









Légende :    VFR   VFR Marginal   IFR   IFR Intensif   IFR Très Intensif
Visi : 
Plafond : 
>= 8 km
>= 3000ft
5 à 8 km
1000 à 3000 ft
1500m à 5 km
500 à 1000 ft
800 à 1500m
200 à 500 ft
< 800m
< 200 ft
Symboles :   Orages  Brouillard  Fortes neiges  Fortes précipitations  Vent > 20 kt






- Altitude de l'aérodrome : 17 ft


KNGU - Norfolk Ns (Chambers Fld)

DERNIER METAR :
  • 171859Z 36013G18KT 10SM SCT260 05/M07 A3067 RMK AO2 SLP384 T00501072

METARs EXPIRÉS :
  • 171759Z 36013G21KT 10SM SCT260 05/M07 A3066 RMK AO2 SLP384 T00501072 10050 20022 58005
  • 171659Z 36011G24KT 10SM SCT260 04/M07 A3068 RMK AO2 SLP389 T00441072

TAF TAF KNGU
Valide du 17 à 15h jusqu'au 18 à 15h UTC


1715/1815 34020G30KT 9999 FEW030 SCT260 QNH3062INS
BECMG 1718/1720 36014G20KT 9999 FEW260 QNH3061INS
BECMG 1723/1800 02007KT 9999 FEW030 SCT260 QNH3064INS
FM180500 VRB04KT 9999 FEW030 BKN260 QNH3047INS T04/1718Z TM01/1808Z FN20002



MET'MAP, la Météo Aéronautique d'un coup d'oeil ! - Copyright ORBIFLY Décembre 2007 - Disclaimer

ORBIFLY MET'MAP TEAM :

Programmation & Développement : Alexandra Zaïnal
Sur une idée originale de : Baudouin d'Aumeries
Assistance à la programmation : Marc-Olivier Méhu
Soutien technique & logistique : Manuel Goepfert

Contact : metmap@orbifly.com




SOURCES & CREDITS :

   NOAA       Earth
Advisory